Szeged, Hungary
Current Conditions -  °F | °C
As of 3:45 AM on Tuesday 21 Oct 2014 (Local Time) from LHUD Reporting Station
Haze Haze  
Wind Chill: 50°   Ceiling: Unl
Heat Index: 50°   Visibility: 2.8mi
Dew Point: 50°   Wind: 7mph
Humidity: 100%   Direction: 170°S
Pressure: 29.94"   Gusts: NA
Location:  46.26°N, 20.16°E
Report Text: LHUD 210145Z 17006KT 4500 BR FEW200 10/10 Q1014
Loading
Personal Weather Stations






























Interactive Weather Map
Tropical Storm Tracking
New forecast layout! Learn more

10-Day Weather Forecast

Advertisements
Track Severe Weather on mobile